Time;durP1;ratioP1;P1;durP2;ratioP2;P2;SDS_P1;SDS_P2;PMS_P1;PMS_P2;Temp;Humidity;BMP_temperature;BMP_pressure;BME280_temperature;BME280_humidity;BME280_pressure;Samples;Min_cycle;Max_cycle;Signal;HPM_P1;HPM_P2
2022/11/18 00:02:10;;;;;;;2.22;1.40;;;;;;;8.73;nan;98665.09;5064019;28;20066;-64
2022/11/18 00:04:35;;;;;;;3.75;1.50;;;;;;;8.70;nan;98659.19;5063470;28;20699;-64
2022/11/18 00:07:00;;;;;;;5.95;1.65;;;;;;;8.72;nan;98669.53;5066026;28;20044;-64
2022/11/18 00:09:25;;;;;;;2.45;1.30;;;;;;;8.74;nan;98666.72;5065508;28;20040;-64
2022/11/18 00:14:35;;;;;;;4.70;1.50;;;;;;;8.79;nan;98666.97;5057063;28;20111;-64
2022/11/18 00:17:03;;;;;;;1.75;1.00;;;;;;;8.82;nan;98658.69;5067564;28;20040;-64
2022/11/18 00:19:35;;;;;;;3.63;1.20;;;;;;;8.85;nan;98658.34;5069442;28;20097;-64
2022/11/18 00:22:01;;;;;;;1.95;1.10;;;;;;;8.83;nan;98652.44;5069665;28;20073;-64
2022/11/18 00:24:27;;;;;;;2.47;1.20;;;;;;;8.79;nan;98654.59;5069314;28;20492;-64
2022/11/18 00:26:53;;;;;;;2.38;1.10;;;;;;;8.82;nan;98663.97;5069891;28;20036;-64
2022/11/18 00:29:19;;;;;;;1.83;1.15;;;;;;;8.82;nan;98656.06;5069568;28;20034;-64
2022/11/18 00:31:44;;;;;;;1.73;1.00;;;;;;;8.83;nan;98660.34;5068383;28;20126;-64
2022/11/18 00:34:12;;;;;;;1.40;1.00;;;;;;;8.86;nan;98663.41;5064319;28;20484;-64
2022/11/18 00:36:38;;;;;;;2.05;1.00;;;;;;;8.90;nan;98666.50;5067203;28;20036;-64
2022/11/18 00:39:04;;;;;;;1.65;1.00;;;;;;;8.93;nan;98666.94;5049782;28;20049;-64
2022/11/18 00:42:50;;;;;;;1.83;1.00;;;;;;;8.97;nan;98672.66;5069333;28;20039;-64
2022/11/18 00:44:15;;;;;;;1.13;0.75;;;;;;;9.01;nan;98662.53;5061481;28;20047;-65
2022/11/18 00:46:40;;;;;;;2.35;1.02;;;;;;;9.03;nan;98669.25;5065233;28;20036;-64
2022/11/18 00:49:06;;;;;;;1.08;0.80;;;;;;;9.05;nan;98663.81;5068969;28;20047;-63
2022/11/18 00:51:31;;;;;;;2.05;1.00;;;;;;;9.06;nan;98661.00;5069120;28;20169;-64
2022/11/18 00:53:56;;;;;;;2.05;0.80;;;;;;;9.07;nan;98667.06;5066392;28;20064;-64
2022/11/18 00:56:22;;;;;;;3.60;1.02;;;;;;;9.10;nan;98662.22;5061772;28;20482;-64
2022/11/18 00:58:47;;;;;;;1.92;0.90;;;;;;;9.12;nan;98662.06;5058987;28;20099;-64
2022/11/18 01:01:12;;;;;;;2.92;1.15;;;;;;;9.13;nan;98661.88;5068771;28;20038;-64
2022/11/18 01:03:37;;;;;;;2.50;1.02;;;;;;;9.16;nan;98663.31;5068775;28;20040;-64
2022/11/18 01:06:03;;;;;;;2.45;0.85;;;;;;;9.18;nan;98663.13;5068700;28;20037;-65
2022/11/18 01:08:28;;;;;;;1.45;0.90;;;;;;;9.20;nan;98671.66;5068970;28;20271;-64
2022/11/18 01:10:53;;;;;;;2.55;0.80;;;;;;;9.20;nan;98677.78;5068838;28;20094;-64
2022/11/18 01:13:22;;;;;;;3.22;0.90;;;;;;;9.23;nan;98680.03;5068470;28;20495;-64
2022/11/18 01:15:53;;;;;;;2.78;1.00;;;;;;;9.24;nan;98681.63;5068789;28;20029;-64
2022/11/18 01:18:20;;;;;;;2.42;1.10;;;;;;;9.24;nan;98689.53;5067771;28;20045;-64
2022/11/18 01:20:46;;;;;;;3.22;1.10;;;;;;;9.27;nan;98683.91;5068546;28;20115;-64
2022/11/18 01:23:12;;;;;;;1.67;1.10;;;;;;;9.29;nan;98696.91;5068091;28;20556;-64
2022/11/18 01:25:39;;;;;;;2.55;1.20;;;;;;;9.29;nan;98694.25;5068122;28;20633;-64
2022/11/18 01:28:05;;;;;;;3.58;1.20;;;;;;;9.32;nan;98693.91;5067803;28;20170;-64
2022/11/18 01:30:34;;;;;;;3.13;1.40;;;;;;;9.34;nan;98695.34;5042861;28;20663;-64
2022/11/18 01:33:00;;;;;;;2.30;1.20;;;;;;;9.35;nan;98701.44;5056344;28;20032;-64
2022/11/18 01:35:26;;;;;;;2.78;1.30;;;;;;;9.37;nan;98696.78;5064514;28;20029;-64
2022/11/18 01:37:51;;;;;;;3.13;1.40;;;;;;;9.38;nan;98701.03;5065379;28;20040;-64
2022/11/18 01:40:16;;;;;;;3.38;1.85;;;;;;;9.38;nan;98701.03;5061991;28;20082;-64
2022/11/18 01:42:41;;;;;;;3.30;1.90;;;;;;;9.40;nan;98704.31;5059893;28;20047;-64
2022/11/18 01:45:20;;;;;;;2.85;1.70;;;;;;;9.38;nan;98705.50;5061705;28;20033;-64
2022/11/18 01:48:05;;;;;;;3.58;1.88;;;;;;;9.36;nan;98709.13;5062827;28;20056;-64
2022/11/18 01:50:33;;;;;;;3.15;1.70;;;;;;;9.40;nan;98703.50;5062905;28;20036;-64
2022/11/18 01:53:03;;;;;;;3.13;1.90;;;;;;;9.42;nan;98712.06;5064547;28;20087;-64
2022/11/18 01:55:34;;;;;;;3.72;1.73;;;;;;;9.42;nan;98712.88;5065184;28;20474;-64
2022/11/18 01:58:17;;;;;;;3.20;1.70;;;;;;;9.42;nan;98718.13;5062833;28;20044;-64
2022/11/18 02:00:42;;;;;;;2.80;1.70;;;;;;;9.42;nan;98715.50;5057920;28;20064;-64
2022/11/18 02:03:08;;;;;;;2.35;1.40;;;;;;;9.43;nan;98711.84;5065085;28;20106;-64
2022/11/18 02:05:34;;;;;;;3.53;1.70;;;;;;;9.42;nan;98710.22;5062169;28;20051;-64
2022/11/18 02:08:01;;;;;;;2.75;1.65;;;;;;;9.43;nan;98711.84;5061453;28;20033;-64
2022/11/18 02:10:27;;;;;;;4.05;1.90;;;;;;;9.41;nan;98705.94;5065155;28;20111;-64
2022/11/18 02:12:54;;;;;;;2.40;1.80;;;;;;;9.40;nan;98712.22;5066189;28;20131;-64
2022/11/18 02:15:38;;;;;;;3.00;1.80;;;;;;;9.38;nan;98708.16;5065881;28;20761;-64
2022/11/18 02:18:14;;;;;;;2.80;1.73;;;;;;;9.35;nan;98709.34;5055520;28;20032;-65
2022/11/18 02:20:43;;;;;;;3.28;1.80;;;;;;;9.34;nan;98713.81;5061911;28;20037;-64
2022/11/18 02:23:49;;;;;;;3.67;2.10;;;;;;;9.31;nan;98716.00;5065891;28;20295;-64
2022/11/18 02:26:24;;;;;;;3.95;1.80;;;;;;;9.32;nan;98713.19;5000820;28;20050;-64
2022/11/18 02:29:05;;;;;;;2.97;1.67;;;;;;;9.32;nan;98723.72;4992695;28;20121;-64
2022/11/18 02:31:44;;;;;;;2.28;1.27;;;;;;;9.34;nan;98727.00;5037493;28;20287;-64
2022/11/18 02:34:12;;;;;;;2.45;1.60;;;;;;;9.37;nan;98725.81;5055265;28;20041;-64
2022/11/18 02:37:19;;;;;;;2.88;1.42;;;;;;;9.38;nan;98729.25;5059024;28;20059;-64
2022/11/18 02:39:57;;;;;;;3.85;1.63;;;;;;;9.40;nan;98727.25;5059598;28;20044;-64
2022/11/18 02:42:25;;;;;;;2.40;1.60;;;;;;;9.40;nan;98728.06;5063216;28;20102;-64
2022/11/18 02:44:56;;;;;;;2.38;1.40;;;;;;;9.43;nan;98737.41;5061595;28;20123;-64
2022/11/18 02:47:23;;;;;;;2.50;1.40;;;;;;;9.45;nan;98733.59;5056951;28;20063;-64
2022/11/18 02:49:56;;;;;;;2.15;1.30;;;;;;;9.45;nan;98728.31;5066584;28;20044;-64
2022/11/18 02:52:24;;;;;;;3.83;1.85;;;;;;;9.42;nan;98725.25;5064198;28;20094;-64
2022/11/18 02:54:51;;;;;;;2.42;1.52;;;;;;;9.41;nan;98734.97;5053617;28;20367;-64
2022/11/18 02:57:18;;;;;;;3.40;1.63;;;;;;;9.37;nan;98728.44;5058354;28;20063;-64
2022/11/18 02:59:44;;;;;;;4.60;2.00;;;;;;;9.36;nan;98735.50;5054615;28;20060;-64
2022/11/18 03:02:15;;;;;;;2.22;1.50;;;;;;;9.36;nan;98737.34;5043848;28;20672;-65
2022/11/18 03:04:41;;;;;;;4.28;1.88;;;;;;;9.35;nan;98741.00;5066903;28;20025;-64
2022/11/18 03:07:15;;;;;;;8.77;2.25;;;;;;;9.36;nan;98740.78;5059124;28;20045;-64
2022/11/18 03:09:44;;;;;;;3.88;2.30;;;;;;;9.36;nan;98739.97;5054809;28;20385;-64
2022/11/18 03:12:27;;;;;;;3.75;2.20;;;;;;;9.36;nan;98739.97;5064784;28;20432;-65
2022/11/18 03:15:18;;;;;;;4.03;2.30;;;;;;;9.38;nan;98742.44;5071458;28;20115;-64
2022/11/18 03:17:57;;;;;;;4.32;2.00;;;;;;;9.38;nan;98743.25;5065307;28;20041;-64
2022/11/18 03:20:47;;;;;;;4.03;2.10;;;;;;;9.39;nan;98744.06;5044430;28;20029;-64
2022/11/18 03:23:32;;;;;;;3.33;2.10;;;;;;;9.39;nan;98744.91;5055128;28;20036;-64
2022/11/18 03:26:08;;;;;;;3.47;2.22;;;;;;;9.40;nan;98757.06;5069295;28;20610;-64
2022/11/18 03:28:42;;;;;;;3.75;2.30;;;;;;;9.37;nan;98752.19;5061500;28;20132;-64
2022/11/18 03:31:30;;;;;;;5.53;2.42;;;;;;;9.36;nan;98756.63;5067079;28;20035;-64
2022/11/18 03:34:01;;;;;;;3.05;2.10;;;;;;;9.32;nan;98758.03;5060297;28;20028;-64
2022/11/18 03:36:32;;;;;;;4.30;2.28;;;;;;;9.30;nan;98761.84;5067891;28;20040;-64
2022/11/18 03:39:00;;;;;;;2.33;1.90;;;;;;;9.27;nan;98767.47;5068030;28;20041;-64
2022/11/18 03:41:30;;;;;;;3.65;2.03;;;;;;;9.23;nan;98761.78;5067464;28;20676;-64
2022/11/18 03:44:08;;;;;;;4.72;2.40;;;;;;;9.21;nan;98770.88;5068269;28;20489;-65
2022/11/18 03:46:39;;;;;;;3.35;2.10;;;;;;;9.19;nan;98772.88;5068396;28;20064;-65
2022/11/18 03:49:09;;;;;;;2.70;1.63;;;;;;;9.20;nan;98775.34;5065915;28;20028;-65
2022/11/18 03:51:41;;;;;;;3.15;1.67;;;;;;;9.20;nan;98775.34;5068468;28;20067;-65
2022/11/18 03:54:19;;;;;;;4.07;1.80;;;;;;;9.15;nan;98788.25;5064896;28;20036;-65
2022/11/18 03:56:53;;;;;;;2.50;1.50;;;;;;;9.12;nan;98778.88;5063508;28;20039;-64
2022/11/18 03:59:25;;;;;;;4.05;2.15;;;;;;;9.10;nan;98786.16;5067738;28;20052;-65
2022/11/18 04:02:21;;;;;;;3.72;2.25;;;;;;;9.08;nan;98790.81;5067024;28;20032;-65
2022/11/18 04:04:49;;;;;;;5.47;2.45;;;;;;;9.06;nan;98789.38;5065580;28;20044;-64
2022/11/18 04:07:28;;;;;;;3.20;1.90;;;;;;;9.09;nan;98783.72;5067865;28;20036;-64
2022/11/18 04:10:17;;;;;;;2.80;2.00;;;;;;;9.10;nan;98793.25;5067663;28;20275;-64
2022/11/18 04:12:48;;;;;;;2.80;1.80;;;;;;;9.10;nan;98787.97;5057690;28;20094;-64
2022/11/18 04:15:14;;;;;;;5.03;2.47;;;;;;;9.11;nan;98789.63;5069121;28;20123;-64
2022/11/18 04:17:41;;;;;;;3.83;2.30;;;;;;;9.09;nan;98795.06;5067105;28;20040;-64
2022/11/18 04:20:14;;;;;;;5.25;2.38;;;;;;;9.08;nan;98796.09;5067786;28;20320;-65
2022/11/18 04:22:40;;;;;;;3.33;2.20;;;;;;;9.10;nan;98798.53;5066384;28;20556;-64
2022/11/18 04:25:05;;;;;;;3.20;2.40;;;;;;;9.10;nan;98803.81;5068300;28;20119;-64
2022/11/18 04:27:30;;;;;;;4.13;2.38;;;;;;;9.12;nan;98805.25;5063857;28;20510;-65
2022/11/18 04:29:56;;;;;;;3.50;2.15;;;;;;;9.11;nan;98806.25;5067722;28;20064;-64
2022/11/18 04:32:21;;;;;;;3.45;1.90;;;;;;;9.12;nan;98807.88;5067677;28;20043;-65
2022/11/18 04:34:46;;;;;;;3.40;1.90;;;;;;;9.14;nan;98816.44;5066370;28;20044;-64
2022/11/18 04:37:11;;;;;;;3.85;2.47;;;;;;;9.14;nan;98811.16;5065335;28;20452;-64
2022/11/18 04:39:37;;;;;;;3.65;2.08;;;;;;;9.14;nan;98799.81;5066827;28;20036;-65
2022/11/18 04:42:02;;;;;;;6.03;2.72;;;;;;;9.16;nan;98807.53;5066161;28;20097;-68
2022/11/18 04:44:30;;;;;;;4.63;3.00;;;;;;;9.12;nan;98809.72;5063836;28;20067;-64
2022/11/18 04:46:58;;;;;;;7.43;3.25;;;;;;;9.13;nan;98812.19;5067533;28;20528;-64
2022/11/18 04:49:24;;;;;;;3.85;2.50;;;;;;;9.14;nan;98823.53;5052510;28;20056;-64
2022/11/18 04:51:51;;;;;;;3.53;2.88;;;;;;;9.16;nan;98815.44;5066518;28;20032;-64
2022/11/18 04:54:16;;;;;;;6.50;3.20;;;;;;;;;;5061529;28;20110;-64
2022/11/18 04:56:42;;;;;;;4.65;2.80;;;;;;;;;;5042113;28;20140;-64
2022/11/18 04:59:07;;;;;;;3.03;2.20;;;;;;;;;;5057524;28;20405;-64
2022/11/18 05:01:33;;;;;;;3.85;3.00;;;;;;;;;;5068744;28;20060;-64
2022/11/18 05:03:59;;;;;;;4.80;3.35;;;;;;;;;;5069195;28;20481;-64
2022/11/18 05:06:24;;;;;;;4.57;3.10;;;;;;;;;;5068623;28;20040;-64
2022/11/18 05:08:50;;;;;;;5.23;3.10;;;;;;;;;;5068865;28;20452;-64
2022/11/18 05:13:58;;;;;;;6.18;4.60;;;;;;;;;;5069278;28;20046;-64
2022/11/18 05:16:24;;;;;;;6.67;3.73;;;;;;;;;;5066814;28;20475;-64
2022/11/18 05:18:49;;;;;;;5.40;3.50;;;;;;;;;;5066555;28;20941;-64
2022/11/18 05:21:14;;;;;;;3.90;3.30;;;;;;;;;;5065932;28;20032;-64
2022/11/18 05:23:39;;;;;;;5.67;4.13;;;;;;;;;;5066490;28;20036;-64
2022/11/18 05:26:05;;;;;;;7.70;5.40;;;;;;;;;;5062273;28;20024;-65
2022/11/18 05:28:31;;;;;;;8.48;5.35;;;;;;;;;;5065637;28;20295;-65
2022/11/18 05:30:56;;;;;;;6.78;4.13;;;;;;;;;;5067009;28;20056;-64
2022/11/18 05:33:21;;;;;;;5.43;3.83;;;;;;;;;;5065832;28;20098;-64
2022/11/18 05:35:46;;;;;;;5.10;3.17;;;;;;;;;;5066729;28;20352;-65
2022/11/18 05:38:12;;;;;;;4.05;2.50;;;;;;;;;;5065150;28;20048;-65
2022/11/18 05:40:37;;;;;;;3.47;2.07;;;;;;;;;;5064913;28;20158;-65
2022/11/18 05:43:11;;;;;;;3.63;1.97;;;;;;;;;;5063213;28;20067;-64
2022/11/18 05:45:39;;;;;;;3.40;1.65;;;;;;;;;;5062164;28;20044;-64
2022/11/18 05:48:05;;;;;;;5.03;2.00;;;;;;;;;;5066990;28;20771;-64
2022/11/18 05:50:31;;;;;;;3.75;1.60;;;;;;;;;;5065306;28;20051;-64
2022/11/18 05:52:57;;;;;;;3.03;1.50;;;;;;;;;;5062040;28;20396;-64
2022/11/18 05:55:23;;;;;;;2.60;1.33;;;;;;;;;;5066443;28;20035;-64
2022/11/18 05:57:48;;;;;;;1.75;1.23;;;;;;;;;;5060679;28;20052;-64
2022/11/18 06:00:14;;;;;;;2.07;1.20;;;;;;;;;;5063211;28;20063;-65
2022/11/18 06:02:40;;;;;;;2.75;1.33;;;;;;;;;;5066230;28;20539;-64
2022/11/18 06:05:05;;;;;;;2.97;1.30;;;;;;;;;;5066312;28;20041;-64
2022/11/18 06:07:33;;;;;;;1.25;0.90;;;;;;;;;;5065405;28;20044;-64
2022/11/18 06:09:59;;;;;;;1.13;0.80;;;;;;;;;;5066314;28;20048;-64
2022/11/18 06:12:26;;;;;;;2.90;1.30;;;;;;;;;;5063391;28;20381;-64
2022/11/18 06:14:55;;;;;;;2.25;1.15;;;;;;;;;;5056863;28;20067;-64
2022/11/18 06:17:25;;;;;;;2.90;1.10;;;;;;;;;;5064232;28;20143;-64
2022/11/18 06:19:51;;;;;;;1.58;0.90;;;;;;;;;;5065393;28;20044;-64
2022/11/18 06:22:16;;;;;;;4.88;2.03;;;;;;;;;;5063112;28;20094;-64
2022/11/18 06:24:42;;;;;;;3.17;1.97;;;;;;;;;;5048297;28;20116;-64
2022/11/18 06:27:07;;;;;;;2.00;1.20;;;;;;;;;;5057459;28;20337;-64
2022/11/18 06:29:33;;;;;;;1.30;0.90;;;;;;;;;;5057040;28;20048;-64
2022/11/18 06:31:58;;;;;;;2.00;0.90;;;;;;;;;;5065943;28;20041;-64
2022/11/18 06:34:23;;;;;;;1.00;0.73;;;;;;;;;;5059308;28;20037;-64
2022/11/18 06:36:48;;;;;;;2.08;0.73;;;;;;;;;;5064739;28;20770;-64
2022/11/18 06:39:14;;;;;;;1.07;0.60;;;;;;;;;;5063817;28;20264;-64
2022/11/18 06:41:39;;;;;;;1.13;0.80;;;;;;;;;;5063923;28;20500;-65
2022/11/18 06:44:04;;;;;;;1.67;0.90;;;;;;;;;;5057853;28;20037;-65
2022/11/18 06:49:13;;;;;;;1.77;0.80;;;;;;;;;;5060648;28;20286;-65
2022/11/18 06:51:39;;;;;;;1.07;0.77;;;;;;;;;;5058299;28;20398;-64
2022/11/18 06:54:04;;;;;;;1.13;0.70;;;;;;;;;;5060638;28;20044;-65
2022/11/18 06:56:29;;;;;;;1.98;0.80;;;;;;;;;;5061573;28;20056;-65
2022/11/18 06:58:56;;;;;;;1.98;0.80;;;;;;;;;;5058518;28;20044;-65
2022/11/18 07:01:23;;;;;;;1.98;1.00;;;;;;;;;;5063194;28;20463;-64
2022/11/18 07:03:48;;;;;;;1.92;1.10;;;;;;;;;;5064016;28;20045;-64
2022/11/18 07:06:15;;;;;;;2.47;1.00;;;;;;;;;;5065278;28;20064;-64
2022/11/18 07:08:41;;;;;;;1.90;1.00;;;;;;;;;;5063871;28;20125;-64
2022/11/18 07:11:08;;;;;;;1.92;0.90;;;;;;;;;;5045836;28;20028;-65
2022/11/18 07:13:33;;;;;;;1.50;0.85;;;;;;;;;;5067476;28;20044;-66
2022/11/18 07:16:03;;;;;;;1.95;0.80;;;;;;;;;;5067267;28;20541;-65
2022/11/18 07:18:29;;;;;;;1.67;0.80;;;;;;;;;;5066244;28;20412;-66
2022/11/18 07:20:54;;;;;;;1.23;0.90;;;;;;;;;;5066901;28;20124;-65
2022/11/18 07:23:20;;;;;;;1.77;0.87;;;;;;;;;;5067259;28;20120;-65
2022/11/18 07:25:45;;;;;;;1.70;0.87;;;;;;;;;;5067378;28;20520;-65
2022/11/18 07:28:10;;;;;;;1.40;0.70;;;;;;;;;;5066562;28;20694;-66
2022/11/18 07:30:35;;;;;;;1.37;0.90;;;;;;;;;;5066971;28;20323;-65
2022/11/18 07:33:00;;;;;;;0.60;0.60;;;;;;;;;;5065607;28;20075;-65
2022/11/18 07:35:25;;;;;;;2.83;0.90;;;;;;;;;;5067049;28;20799;-65
2022/11/18 07:37:51;;;;;;;1.17;0.70;;;;;;;;;;5067272;28;20040;-65
2022/11/18 07:40:16;;;;;;;0.93;0.77;;;;;;;;;;5066976;28;20033;-65
2022/11/18 07:42:41;;;;;;;1.15;0.80;;;;;;;;;;5070652;28;20353;-65
2022/11/18 07:45:10;;;;;;;2.07;1.03;;;;;;;;;;5060538;28;20508;-65
2022/11/18 07:47:35;;;;;;;1.60;1.10;;;;;;;;;;5070414;28;20048;-65
2022/11/18 07:50:00;;;;;;;2.17;1.10;;;;;;;;;;5070876;28;20090;-65
2022/11/18 07:52:25;;;;;;;2.47;1.20;;;;;;;;;;5067113;28;20040;-65
2022/11/18 07:54:51;;;;;;;2.10;1.20;;;;;;;;;;5056735;28;20040;-65
2022/11/18 07:57:16;;;;;;;2.53;1.37;;;;;;;;;;5056665;28;20540;-65
2022/11/18 07:59:41;;;;;;;2.27;1.40;;;;;;;;;;5062705;28;20049;-65
2022/11/18 08:02:09;;;;;;;2.67;1.43;;;;;;;;;;5069532;28;20693;-66
2022/11/18 08:04:35;;;;;;;1.95;1.38;;;;;;;;;;5069162;28;20172;-65
2022/11/18 08:07:01;;;;;;;2.47;1.30;;;;;;;;;;5070531;28;20497;-65
2022/11/18 08:09:26;;;;;;;3.40;1.60;;;;;;;;;;5070202;28;20047;-65
2022/11/18 08:11:51;;;;;;;2.23;1.20;;;;;;;;;;5068501;28;20036;-65
2022/11/18 08:14:16;;;;;;;2.95;1.17;;;;;;;;;;5069495;28;20081;-66
2022/11/18 08:16:41;;;;;;;2.17;1.07;;;;;;;;;;5069886;28;20517;-65
2022/11/18 08:19:07;;;;;;;3.43;1.27;;;;;;;;;;5069616;28;20059;-65
2022/11/18 08:21:32;;;;;;;2.70;1.20;;;;;;;;;;5069893;28;20037;-65
2022/11/18 08:23:57;;;;;;;3.57;1.20;;;;;;;;;;5069790;28;20044;-65
2022/11/18 08:26:23;;;;;;;1.88;0.90;;;;;;;;;;5068841;28;20293;-66
2022/11/18 08:28:48;;;;;;;2.90;1.00;;;;;;;;;;5069659;28;20036;-65
2022/11/18 08:31:25;;;;;;;2.00;1.10;;;;;;;8.24;nan;99021.97;5051636;28;20043;-65
2022/11/18 08:34:04;;;;;;;2.60;1.30;;;;;;;;;;5069526;28;20285;-65
2022/11/18 08:36:30;;;;;;;3.58;1.08;;;;;;;;;;5069394;28;20453;-66
2022/11/18 08:38:56;;;;;;;2.53;1.27;;;;;;;;;;5060593;28;20497;-65
2022/11/18 08:41:31;;;;;;;2.10;1.10;;;;;;;;;;5067231;28;20047;-65
2022/11/18 08:43:56;;;;;;;2.08;1.10;;;;;;;;;;5067412;28;20040;-65
2022/11/18 08:46:22;;;;;;;3.50;1.17;;;;;;;;;;5048724;28;20421;-66
2022/11/18 08:48:47;;;;;;;3.55;1.25;;;;;;;;;;5057141;28;20055;-66
2022/11/18 08:51:12;;;;;;;1.98;1.30;;;;;;;;;;5069495;28;20174;-66
2022/11/18 08:53:38;;;;;;;2.60;1.50;;;;;;;;;;5062431;28;20063;-66
2022/11/18 08:56:03;;;;;;;2.45;1.40;;;;;;;;;;5064197;28;20112;-65
2022/11/18 08:58:28;;;;;;;3.47;1.60;;;;;;;;;;5050380;28;20060;-66
2022/11/18 09:00:54;;;;;;;3.05;1.50;;;;;;;;;;5055165;28;20846;-65
2022/11/18 09:03:19;;;;;;;2.70;1.50;;;;;;;;;;5068143;28;20405;-66
2022/11/18 09:05:44;;;;;;;3.53;1.60;;;;;;;;;;5068957;28;20041;-66
2022/11/18 09:08:10;;;;;;;2.30;1.60;;;;;;;;;;5068787;28;20036;-66
2022/11/18 09:10:36;;;;;;;4.40;1.80;;;;;;;;;;5068163;28;20241;-65
2022/11/18 09:13:01;;;;;;;3.47;1.75;;;;;;;;;;5069021;28;20119;-66
2022/11/18 09:15:28;;;;;;;2.83;1.67;;;;;;;;;;5068827;28;20120;-65
2022/11/18 09:17:53;;;;;;;2.67;1.50;;;;;;;;;;5069050;28;20056;-65
2022/11/18 09:20:19;;;;;;;2.53;1.80;;;;;;;;;;5068165;28;20060;-66
2022/11/18 09:22:44;;;;;;;2.33;1.50;;;;;;;;;;5067970;28;20584;-65
2022/11/18 09:25:09;;;;;;;2.78;2.00;;;;;;;;;;5068215;28;20751;-66
2022/11/18 09:27:34;;;;;;;2.35;1.67;;;;;;;;;;5068493;28;20040;-66
2022/11/18 09:29:59;;;;;;;2.30;1.60;;;;;;;;;;5068527;28;20051;-65
2022/11/18 09:32:25;;;;;;;2.70;1.50;;;;;;;;;;5068039;28;20500;-66
2022/11/18 09:34:50;;;;;;;3.38;2.00;;;;;;;;;;5068350;28;20127;-66
2022/11/18 09:37:15;;;;;;;2.77;1.60;;;;;;;;;;5068443;28;20040;-65
2022/11/18 09:39:40;;;;;;;2.92;2.00;;;;;;;;;;5067131;28;20046;-65
2022/11/18 09:42:06;;;;;;;2.72;1.83;;;;;;;;;;5062989;28;20098;-66
2022/11/18 09:44:34;;;;;;;2.87;1.80;;;;;;;;;;5061931;28;20039;-66
2022/11/18 09:47:18;;;;;;;2.75;1.85;;;;;;;;;;5066689;28;20068;-65
2022/11/18 09:49:44;;;;;;;3.42;2.20;;;;;;;;;;5068133;28;20370;-65
2022/11/18 09:52:14;;;;;;;3.45;2.08;;;;;;;;;;5062478;28;20127;-66
2022/11/18 09:54:39;;;;;;;3.95;2.08;;;;;;;;;;5048976;28;20599;-66
2022/11/18 09:57:12;;;;;;;2.70;1.90;;;;;;;;;;5059795;28;20043;-65
2022/11/18 09:59:37;;;;;;;2.67;1.95;;;;;;;;;;5060329;28;20624;-65
2022/11/18 10:02:22;;;;;;;3.42;1.95;;;;;;;;;;5067148;28;20353;-66
2022/11/18 10:04:47;;;;;;;4.15;2.03;;;;;;;;;;5049877;28;20430;-65
2022/11/18 10:07:19;;;;;;;2.53;2.00;;;;;;;;;;5049681;28;20044;-65
2022/11/18 10:09:46;;;;;;;2.53;1.65;;;;;;;;;;5068343;28;20287;-65
2022/11/18 10:12:18;;;;;;;2.17;1.60;;;;;;;;;;5066690;28;20029;-66
2022/11/18 10:15:01;;;;;;;3.05;2.00;;;;;;;;;;5068032;28;20119;-65
2022/11/18 10:17:43;;;;;;;3.20;1.85;;;;;;;;;;5066950;28;20057;-65
2022/11/18 10:20:17;;;;;;;3.35;2.15;;;;;;;;;;5067560;28;20036;-66
2022/11/18 10:23:01;;;;;;;3.45;2.03;;;;;;;;;;5067457;28;20036;-65
2022/11/18 10:25:27;;;;;;;2.55;1.92;;;;;;;;;;5067775;28;20028;-65
2022/11/18 10:27:54;;;;;;;3.47;2.33;;;;;;;;;;5067577;28;20043;-65
2022/11/18 10:30:23;;;;;;;2.58;2.00;;;;;;;;;;5067024;28;20059;-65
2022/11/18 10:32:52;;;;;;;3.30;2.38;;;;;;;;;;5049203;28;20041;-65
2022/11/18 10:35:25;;;;;;;3.00;2.47;;;;;;;;;;5055407;28;20041;-65
2022/11/18 10:38:05;;;;;;;4.50;2.78;;;;;;;;;;5068031;28;20412;-65
2022/11/18 10:40:32;;;;;;;4.00;2.60;;;;;;;;;;5067462;28;20075;-65
2022/11/18 10:42:57;;;;;;;3.75;2.80;;;;;;;;;;5047170;28;20361;-65
2022/11/18 10:45:23;;;;;;;3.28;2.75;;;;;;;;;;5061131;28;20120;-65
2022/11/18 10:48:08;;;;;;;5.38;3.50;;;;;;;;;;5067060;28;20039;-65
2022/11/18 10:50:34;;;;;;;5.25;2.88;;;;;;;;;;5054002;28;20501;-65
2022/11/18 10:53:00;;;;;;;3.25;2.60;;;;;;;;;;5050838;28;20033;-65
2022/11/18 10:55:26;;;;;;;4.43;3.10;;;;;;;;;;5060642;28;20036;-65
2022/11/18 10:58:21;;;;;;;4.20;3.17;;;;;;;;;;5054181;28;20090;-65
2022/11/18 11:00:48;;;;;;;4.53;3.40;;;;;;;;;;5030270;28;20441;-65
2022/11/18 11:03:19;;;;;;;4.22;2.90;;;;;;;;;;5065941;28;20041;-65
2022/11/18 11:05:44;;;;;;;3.42;2.55;;;;;;;;;;5067978;28;20394;-65
2022/11/18 11:08:20;;;;;;;3.67;2.77;;;;;;;;;;5066423;28;20087;-65
2022/11/18 11:10:56;;;;;;;3.80;2.60;;;;;;;;;;5067462;28;20558;-65
2022/11/18 11:13:22;;;;;;;4.60;2.83;;;;;;;;;;5067275;28;20253;-65
2022/11/18 11:15:49;;;;;;;3.92;2.80;;;;;;;;;;5068886;28;20037;-65
2022/11/18 11:21:13;;;;;;;3.88;2.90;;;;;;;;;;5072313;28;20044;-65
2022/11/18 11:23:39;;;;;;;3.17;2.72;;;;;;;;;;5070865;28;20055;-65
2022/11/18 11:26:04;;;;;;;4.32;3.20;;;;;;;;;;5070153;28;20489;-65
2022/11/18 11:28:33;;;;;;;3.83;3.10;;;;;;;;;;5071313;28;20040;-65
2022/11/18 11:31:21;;;;;;;4.25;2.63;;;;;;;;;;5071456;28;20040;-66
2022/11/18 11:33:52;;;;;;;3.35;2.40;;;;;;;;;;5071665;28;20052;-65
2022/11/18 11:36:26;;;;;;;2.90;2.50;;;;;;;;;;5071012;28;20028;-66
2022/11/18 11:38:53;;;;;;;;;;;;;;;;;;5071291;28;20132;-65
2022/11/18 11:41:28;;;;;;;3.70;2.50;;;;;;;;;;5070799;28;19974;-65
2022/11/18 11:44:12;;;;;;;3.00;2.22;;;;;;;;;;5069158;28;20074;-65
2022/11/18 11:47:45;;;;;;;3.53;2.40;;;;;;;;;;5050389;28;20051;-65
2022/11/18 11:49:47;;;;;;;3.00;2.20;;;;;;;;;;5050885;28;20698;-65
2022/11/18 11:52:15;;;;;;;3.30;2.17;;;;;;;;;;5050683;28;20040;-66
2022/11/18 11:54:41;;;;;;;4.47;2.35;;;;;;;;;;5070815;28;20047;-65
2022/11/18 11:57:12;;;;;;;2.53;2.10;;;;;;;;;;5058090;28;20033;-65
2022/11/18 11:59:37;;;;;;;;;;;;;;;;;;5063033;28;20087;-65
2022/11/18 12:02:02;;;;;;;4.78;2.88;;;;;;;;;;5069949;28;19982;-66
2022/11/18 12:04:45;;;;;;;4.73;2.60;;;;;;;;;;5070310;28;20042;-66
2022/11/18 12:07:24;;;;;;;6.63;2.58;;;;;;;;;;5069293;28;20043;-65
2022/11/18 12:10:08;;;;;;;2.72;2.10;;;;;;;;;;5070406;28;20481;-65
2022/11/18 12:12:42;;;;;;;3.33;2.30;;;;;;;;;;5069330;28;20481;-65
2022/11/18 12:15:10;;;;;;;3.33;2.20;;;;;;;;;;5064458;28;20082;-65
2022/11/18 12:17:40;;;;;;;4.22;2.40;;;;;;;;;;5070032;28;20049;-65
2022/11/18 12:20:24;;;;;;;3.22;2.40;;;;;;;;;;5051959;28;20036;-66
2022/11/18 12:23:08;;;;;;;3.33;2.38;;;;;;;;;;5069355;28;20028;-66
2022/11/18 12:25:42;;;;;;;3.72;2.53;;;;;;;;;;5070111;28;20396;-66
2022/11/18 12:28:07;;;;;;;3.33;2.33;;;;;;;;;;5068798;28;20044;-66
2022/11/18 12:30:32;;;;;;;2.77;2.10;;;;;;;;;;5069790;28;20098;-65
2022/11/18 12:32:57;;;;;;;3.17;2.23;;;;;;;;;;5051574;28;20028;-65
2022/11/18 12:35:23;;;;;;;3.53;2.30;;;;;;;;;;5069983;28;20063;-65
2022/11/18 12:37:51;;;;;;;2.80;2.00;;;;;;;;;;5069511;28;20047;-66
2022/11/18 12:40:35;;;;;;;2.95;2.17;;;;;;;;;;5067129;28;20290;-65
2022/11/18 12:45:44;;;;;;;4.03;2.17;;;;;;;;;;5064874;28;20127;-65
2022/11/18 12:48:28;;;;;;;2.30;1.63;;;;;;;;;;5051166;28;20116;-66
2022/11/18 12:51:03;;;;;;;2.40;1.80;;;;;;;;;;5057489;28;20027;-66
2022/11/18 12:53:28;;;;;;;3.45;2.45;;;;;;;;;;5057478;28;20108;-66
2022/11/18 12:55:53;;;;;;;3.43;1.93;;;;;;;;;;5049726;28;20140;-66
2022/11/18 12:58:20;;;;;;;4.20;2.33;;;;;;;;;;5050537;28;20045;-66
2022/11/18 13:00:51;;;;;;;3.22;2.13;;;;;;;;;;5063298;28;20120;-66
2022/11/18 13:03:21;;;;;;;3.72;2.47;;;;;;;;;;5068260;28;20043;-66
2022/11/18 13:05:46;;;;;;;3.58;2.40;;;;;;;;;;5068640;28;20132;-66
2022/11/18 13:08:12;;;;;;;3.13;2.13;;;;;;;;;;5049006;28;20128;-66
2022/11/18 13:10:47;;;;;;;4.28;3.05;;;;;;;;;;5048689;28;20637;-66
2022/11/18 13:13:20;;;;;;;3.33;2.53;;;;;;;;;;5048201;28;20124;-65
2022/11/18 13:18:29;;;;;;;2.80;1.83;;;;;;;;;;5067788;28;20219;-65
2022/11/18 13:20:56;;;;;;;4.43;1.43;;;;;;;;;;5068006;28;20842;-65
2022/11/18 13:26:22;;;;;;;1.50;0.90;;;;;;;;;;5068091;28;20405;-65
2022/11/18 13:29:06;;;;;;;1.95;0.90;;;;;;;;;;5068219;28;20419;-65
2022/11/18 13:31:36;;;;;;;1.58;0.85;;;;;;;;;;5066593;28;20040;-65
2022/11/18 13:34:03;;;;;;;2.80;1.35;;;;;;;;;;5064740;28;20040;-67
2022/11/18 13:36:30;;;;;;;4.85;1.80;;;;;;;;;;5052213;28;20055;-66
2022/11/18 13:38:59;;;;;;;3.80;1.33;;;;;;;;;;5059691;28;20082;-66
2022/11/18 13:41:31;;;;;;;3.20;1.20;;;;;;;;;;5067664;28;20112;-66
2022/11/18 13:44:08;;;;;;;2.78;0.90;;;;;;;;;;5061932;28;20039;-66
2022/11/18 13:46:34;;;;;;;1.48;0.80;;;;;;;;;;5066719;28;20028;-66
2022/11/18 13:48:59;;;;;;;2.58;0.70;;;;;;;;;;5067895;28;20035;-66
2022/11/18 13:51:25;;;;;;;1.17;0.70;;;;;;;;;;5068000;28;20392;-65
2022/11/18 13:53:50;;;;;;;1.30;0.70;;;;;;;;;;5067634;28;20275;-66
2022/11/18 13:56:23;;;;;;;0.68;0.60;;;;;;;;;;5060623;28;20041;-66
2022/11/18 13:58:48;;;;;;;1.27;0.80;;;;;;;;;;5052779;28;20048;-66
2022/11/18 14:01:21;;;;;;;1.30;0.70;;;;;;;;;;5067494;28;20120;-65
2022/11/18 14:03:46;;;;;;;1.45;0.90;;;;;;;;;;5067769;28;20123;-65
2022/11/18 14:06:23;;;;;;;1.63;0.70;;;;;;;9.39;nan;99201.28;5067298;28;20143;-65
2022/11/18 14:08:49;;;;;;;2.30;1.30;;;;;;;;;;5067358;28;20377;-66
2022/11/18 14:11:32;;;;;;;4.80;1.80;;;;;;;;;;5065880;28;20090;-65